sensor_id;sensor_type;location;lat;lon;timestamp;P1;durP1;ratioP1;P2;durP2;ratioP2
22490;SDS011;11412;50.802;4.350;2023-04-15T00:01:20;2.70;;;1.95;;
22490;SDS011;11412;50.802;4.350;2023-04-15T00:03:47;4.78;;;2.55;;
22490;SDS011;11412;50.802;4.350;2023-04-15T00:06:14;2.85;;;2.10;;
22490;SDS011;11412;50.802;4.350;2023-04-15T00:08:40;7.07;;;2.35;;
22490;SDS011;11412;50.802;4.350;2023-04-15T00:11:06;2.75;;;1.90;;
22490;SDS011;11412;50.802;4.350;2023-04-15T00:13:32;2.70;;;1.92;;
22490;SDS011;11412;50.802;4.350;2023-04-15T00:16:00;1.92;;;1.80;;
22490;SDS011;11412;50.802;4.350;2023-04-15T00:18:26;2.67;;;1.60;;
22490;SDS011;11412;50.802;4.350;2023-04-15T00:20:53;2.90;;;1.80;;
22490;SDS011;11412;50.802;4.350;2023-04-15T00:23:19;4.22;;;2.05;;
22490;SDS011;11412;50.802;4.350;2023-04-15T00:25:45;3.05;;;1.90;;
22490;SDS011;11412;50.802;4.350;2023-04-15T00:28:11;3.03;;;1.83;;
22490;SDS011;11412;50.802;4.350;2023-04-15T00:30:36;2.63;;;1.88;;
22490;SDS011;11412;50.802;4.350;2023-04-15T00:33:02;1.83;;;1.73;;
22490;SDS011;11412;50.802;4.350;2023-04-15T00:35:28;2.45;;;2.15;;
22490;SDS011;11412;50.802;4.350;2023-04-15T00:37:56;1.92;;;1.83;;
22490;SDS011;11412;50.802;4.350;2023-04-15T00:40:23;2.10;;;1.90;;
22490;SDS011;11412;50.802;4.350;2023-04-15T00:42:49;4.72;;;2.13;;
22490;SDS011;11412;50.802;4.350;2023-04-15T00:45:15;3.88;;;2.00;;
22490;SDS011;11412;50.802;4.350;2023-04-15T00:47:42;3.47;;;2.03;;
22490;SDS011;11412;50.802;4.350;2023-04-15T00:50:08;3.70;;;2.50;;
22490;SDS011;11412;50.802;4.350;2023-04-15T00:52:34;4.40;;;2.35;;
22490;SDS011;11412;50.802;4.350;2023-04-15T00:55:01;4.07;;;2.13;;
22490;SDS011;11412;50.802;4.350;2023-04-15T00:57:28;5.65;;;3.13;;
22490;SDS011;11412;50.802;4.350;2023-04-15T00:59:55;2.53;;;2.33;;
22490;SDS011;11412;50.802;4.350;2023-04-15T01:02:22;2.60;;;2.40;;
22490;SDS011;11412;50.802;4.350;2023-04-15T01:04:49;3.35;;;2.50;;
22490;SDS011;11412;50.802;4.350;2023-04-15T01:07:15;3.35;;;2.33;;
22490;SDS011;11412;50.802;4.350;2023-04-15T01:09:41;3.95;;;2.70;;
22490;SDS011;11412;50.802;4.350;2023-04-15T01:12:07;3.38;;;2.45;;
22490;SDS011;11412;50.802;4.350;2023-04-15T01:14:36;4.28;;;2.50;;
22490;SDS011;11412;50.802;4.350;2023-04-15T01:17:01;4.95;;;2.25;;
22490;SDS011;11412;50.802;4.350;2023-04-15T01:19:27;2.70;;;2.50;;
22490;SDS011;11412;50.802;4.350;2023-04-15T01:21:53;2.50;;;2.30;;
22490;SDS011;11412;50.802;4.350;2023-04-15T01:24:19;3.17;;;2.88;;
22490;SDS011;11412;50.802;4.350;2023-04-15T01:26:45;2.78;;;2.58;;
22490;SDS011;11412;50.802;4.350;2023-04-15T01:29:12;6.35;;;2.58;;
22490;SDS011;11412;50.802;4.350;2023-04-15T01:31:39;3.00;;;2.67;;
22490;SDS011;11412;50.802;4.350;2023-04-15T01:34:05;4.75;;;2.55;;
22490;SDS011;11412;50.802;4.350;2023-04-15T01:36:31;5.97;;;2.90;;
22490;SDS011;11412;50.802;4.350;2023-04-15T01:38:57;4.35;;;2.72;;
22490;SDS011;11412;50.802;4.350;2023-04-15T01:41:26;3.47;;;2.78;;
22490;SDS011;11412;50.802;4.350;2023-04-15T01:43:52;2.83;;;2.60;;
22490;SDS011;11412;50.802;4.350;2023-04-15T01:46:19;3.20;;;2.90;;
22490;SDS011;11412;50.802;4.350;2023-04-15T01:48:44;2.92;;;2.50;;
22490;SDS011;11412;50.802;4.350;2023-04-15T01:51:10;4.68;;;2.78;;
22490;SDS011;11412;50.802;4.350;2023-04-15T01:53:36;3.58;;;2.67;;
22490;SDS011;11412;50.802;4.350;2023-04-15T01:56:02;4.25;;;3.05;;
22490;SDS011;11412;50.802;4.350;2023-04-15T01:58:28;2.63;;;2.42;;
22490;SDS011;11412;50.802;4.350;2023-04-15T02:00:54;2.47;;;2.28;;
22490;SDS011;11412;50.802;4.350;2023-04-15T02:03:20;2.78;;;2.58;;
22490;SDS011;11412;50.802;4.350;2023-04-15T02:05:46;4.75;;;3.00;;
22490;SDS011;11412;50.802;4.350;2023-04-15T02:08:12;4.63;;;2.85;;
22490;SDS011;11412;50.802;4.350;2023-04-15T02:10:37;4.63;;;3.17;;
22490;SDS011;11412;50.802;4.350;2023-04-15T02:13:03;3.22;;;2.97;;
22490;SDS011;11412;50.802;4.350;2023-04-15T02:15:29;3.55;;;3.10;;
22490;SDS011;11412;50.802;4.350;2023-04-15T02:17:55;3.13;;;2.92;;
22490;SDS011;11412;50.802;4.350;2023-04-15T02:20:20;3.90;;;3.35;;
22490;SDS011;11412;50.802;4.350;2023-04-15T02:22:47;3.67;;;3.30;;
22490;SDS011;11412;50.802;4.350;2023-04-15T02:25:13;3.83;;;3.45;;
22490;SDS011;11412;50.802;4.350;2023-04-15T02:27:41;4.13;;;3.45;;
22490;SDS011;11412;50.802;4.350;2023-04-15T02:30:07;5.65;;;3.67;;
22490;SDS011;11412;50.802;4.350;2023-04-15T02:32:33;3.22;;;2.92;;
22490;SDS011;11412;50.802;4.350;2023-04-15T02:35:03;3.50;;;3.20;;
22490;SDS011;11412;50.802;4.350;2023-04-15T02:37:29;3.22;;;3.03;;
22490;SDS011;11412;50.802;4.350;2023-04-15T02:39:58;3.42;;;3.10;;
22490;SDS011;11412;50.802;4.350;2023-04-15T02:42:24;3.63;;;3.10;;
22490;SDS011;11412;50.802;4.350;2023-04-15T02:44:52;3.70;;;3.40;;
22490;SDS011;11412;50.802;4.350;2023-04-15T02:47:19;3.70;;;3.40;;
22490;SDS011;11412;50.802;4.350;2023-04-15T02:49:44;4.68;;;3.15;;
22490;SDS011;11412;50.802;4.350;2023-04-15T02:52:10;3.65;;;3.30;;
22490;SDS011;11412;50.802;4.350;2023-04-15T02:54:36;3.65;;;3.05;;
22490;SDS011;11412;50.802;4.350;2023-04-15T02:57:01;3.53;;;2.70;;
22490;SDS011;11412;50.802;4.350;2023-04-15T02:59:30;4.28;;;3.08;;
22490;SDS011;11412;50.802;4.350;2023-04-15T03:01:55;3.13;;;2.60;;
22490;SDS011;11412;50.802;4.350;2023-04-15T03:04:24;3.55;;;3.20;;
22490;SDS011;11412;50.802;4.350;2023-04-15T03:06:51;3.15;;;2.90;;
22490;SDS011;11412;50.802;4.350;2023-04-15T03:09:16;3.22;;;2.92;;
22490;SDS011;11412;50.802;4.350;2023-04-15T03:11:42;2.85;;;2.65;;
22490;SDS011;11412;50.802;4.350;2023-04-15T03:14:07;3.17;;;2.95;;
22490;SDS011;11412;50.802;4.350;2023-04-15T03:16:33;2.25;;;2.13;;
22490;SDS011;11412;50.802;4.350;2023-04-15T03:18:59;3.10;;;2.63;;
22490;SDS011;11412;50.802;4.350;2023-04-15T03:21:24;7.00;;;2.40;;
22490;SDS011;11412;50.802;4.350;2023-04-15T03:23:50;2.95;;;2.50;;
22490;SDS011;11412;50.802;4.350;2023-04-15T03:26:29;3.20;;;2.22;;
22490;SDS011;11412;50.802;4.350;2023-04-15T03:28:56;5.60;;;3.28;;
22490;SDS011;11412;50.802;4.350;2023-04-15T03:31:22;4.32;;;3.47;;
22490;SDS011;11412;50.802;4.350;2023-04-15T03:33:48;7.95;;;3.97;;
22490;SDS011;11412;50.802;4.350;2023-04-15T03:36:14;8.63;;;4.70;;
22490;SDS011;11412;50.802;4.350;2023-04-15T03:38:41;9.38;;;5.00;;
22490;SDS011;11412;50.802;4.350;2023-04-15T03:41:07;6.72;;;5.03;;
22490;SDS011;11412;50.802;4.350;2023-04-15T03:43:33;9.25;;;5.28;;
22490;SDS011;11412;50.802;4.350;2023-04-15T03:45:59;7.65;;;5.00;;
22490;SDS011;11412;50.802;4.350;2023-04-15T03:48:25;8.57;;;5.18;;
22490;SDS011;11412;50.802;4.350;2023-04-15T03:50:50;10.85;;;5.55;;
22490;SDS011;11412;50.802;4.350;2023-04-15T03:53:16;13.18;;;6.80;;
22490;SDS011;11412;50.802;4.350;2023-04-15T03:55:42;9.52;;;6.13;;
22490;SDS011;11412;50.802;4.350;2023-04-15T03:58:08;16.63;;;8.65;;
22490;SDS011;11412;50.802;4.350;2023-04-15T04:00:36;20.10;;;9.88;;
22490;SDS011;11412;50.802;4.350;2023-04-15T04:03:02;19.00;;;9.60;;
22490;SDS011;11412;50.802;4.350;2023-04-15T04:05:28;18.58;;;9.25;;
22490;SDS011;11412;50.802;4.350;2023-04-15T04:07:54;15.95;;;9.20;;
22490;SDS011;11412;50.802;4.350;2023-04-15T04:10:20;19.63;;;9.38;;
22490;SDS011;11412;50.802;4.350;2023-04-15T04:12:46;21.92;;;10.95;;
22490;SDS011;11412;50.802;4.350;2023-04-15T04:15:11;19.13;;;9.93;;
22490;SDS011;11412;50.802;4.350;2023-04-15T04:17:37;17.30;;;9.60;;
22490;SDS011;11412;50.802;4.350;2023-04-15T04:20:02;17.50;;;9.50;;
22490;SDS011;11412;50.802;4.350;2023-04-15T04:22:29;16.33;;;8.85;;
22490;SDS011;11412;50.802;4.350;2023-04-15T04:24:55;20.48;;;9.02;;
22490;SDS011;11412;50.802;4.350;2023-04-15T04:27:23;15.10;;;8.25;;
22490;SDS011;11412;50.802;4.350;2023-04-15T04:29:49;13.43;;;8.73;;
22490;SDS011;11412;50.802;4.350;2023-04-15T04:32:15;13.60;;;8.13;;
22490;SDS011;11412;50.802;4.350;2023-04-15T04:34:41;15.88;;;8.13;;
22490;SDS011;11412;50.802;4.350;2023-04-15T04:37:06;12.40;;;6.97;;
22490;SDS011;11412;50.802;4.350;2023-04-15T04:39:32;12.40;;;8.48;;
22490;SDS011;11412;50.802;4.350;2023-04-15T04:41:57;10.88;;;7.40;;
22490;SDS011;11412;50.802;4.350;2023-04-15T04:44:23;12.88;;;7.32;;
22490;SDS011;11412;50.802;4.350;2023-04-15T04:46:49;11.02;;;7.80;;
22490;SDS011;11412;50.802;4.350;2023-04-15T04:49:14;12.57;;;7.97;;
22490;SDS011;11412;50.802;4.350;2023-04-15T04:51:40;13.80;;;7.50;;
22490;SDS011;11412;50.802;4.350;2023-04-15T04:54:06;9.43;;;6.93;;
22490;SDS011;11412;50.802;4.350;2023-04-15T04:56:31;10.75;;;7.25;;
22490;SDS011;11412;50.802;4.350;2023-04-15T04:58:58;11.02;;;7.50;;
22490;SDS011;11412;50.802;4.350;2023-04-15T05:01:24;11.40;;;7.80;;
22490;SDS011;11412;50.802;4.350;2023-04-15T05:03:51;12.95;;;7.80;;
22490;SDS011;11412;50.802;4.350;2023-04-15T05:06:17;10.45;;;7.70;;
22490;SDS011;11412;50.802;4.350;2023-04-15T05:08:43;11.35;;;7.13;;
22490;SDS011;11412;50.802;4.350;2023-04-15T05:11:08;11.80;;;7.50;;
22490;SDS011;11412;50.802;4.350;2023-04-15T05:13:34;11.13;;;7.15;;
22490;SDS011;11412;50.802;4.350;2023-04-15T05:16:03;9.52;;;7.40;;
22490;SDS011;11412;50.802;4.350;2023-04-15T05:18:29;9.98;;;7.07;;
22490;SDS011;11412;50.802;4.350;2023-04-15T05:20:55;11.60;;;7.40;;
22490;SDS011;11412;50.802;4.350;2023-04-15T05:23:21;11.75;;;7.13;;
22490;SDS011;11412;50.802;4.350;2023-04-15T05:25:47;9.38;;;6.85;;
22490;SDS011;11412;50.802;4.350;2023-04-15T05:28:12;9.55;;;6.88;;
22490;SDS011;11412;50.802;4.350;2023-04-15T05:30:38;8.50;;;6.28;;
22490;SDS011;11412;50.802;4.350;2023-04-15T05:33:04;8.63;;;6.20;;
22490;SDS011;11412;50.802;4.350;2023-04-15T05:35:30;9.70;;;6.85;;
22490;SDS011;11412;50.802;4.350;2023-04-15T05:37:55;14.55;;;6.65;;
22490;SDS011;11412;50.802;4.350;2023-04-15T05:40:21;9.23;;;5.85;;
22490;SDS011;11412;50.802;4.350;2023-04-15T05:42:47;8.65;;;6.00;;
22490;SDS011;11412;50.802;4.350;2023-04-15T05:45:13;9.23;;;5.72;;
22490;SDS011;11412;50.802;4.350;2023-04-15T05:47:38;9.32;;;5.97;;
22490;SDS011;11412;50.802;4.350;2023-04-15T05:50:04;10.77;;;5.63;;
22490;SDS011;11412;50.802;4.350;2023-04-15T05:52:30;6.43;;;5.10;;
22490;SDS011;11412;50.802;4.350;2023-04-15T05:54:56;8.38;;;5.32;;
22490;SDS011;11412;50.802;4.350;2023-04-15T05:57:23;7.13;;;5.03;;
22490;SDS011;11412;50.802;4.350;2023-04-15T05:59:48;7.15;;;5.15;;
22490;SDS011;11412;50.802;4.350;2023-04-15T06:02:16;8.77;;;5.50;;
22490;SDS011;11412;50.802;4.350;2023-04-15T06:04:42;6.78;;;4.65;;
22490;SDS011;11412;50.802;4.350;2023-04-15T06:07:08;5.38;;;4.35;;
22490;SDS011;11412;50.802;4.350;2023-04-15T06:09:34;7.22;;;5.07;;
22490;SDS011;11412;50.802;4.350;2023-04-15T06:12:00;7.10;;;5.05;;
22490;SDS011;11412;50.802;4.350;2023-04-15T06:14:26;6.57;;;5.20;;
22490;SDS011;11412;50.802;4.350;2023-04-15T06:16:52;7.10;;;4.85;;
22490;SDS011;11412;50.802;4.350;2023-04-15T06:19:17;7.53;;;5.10;;
22490;SDS011;11412;50.802;4.350;2023-04-15T06:21:43;8.27;;;4.97;;
22490;SDS011;11412;50.802;4.350;2023-04-15T06:24:10;8.23;;;5.13;;
22490;SDS011;11412;50.802;4.350;2023-04-15T06:26:36;7.57;;;5.10;;
22490;SDS011;11412;50.802;4.350;2023-04-15T06:29:02;7.38;;;5.30;;
22490;SDS011;11412;50.802;4.350;2023-04-15T06:31:28;9.73;;;4.90;;
22490;SDS011;11412;50.802;4.350;2023-04-15T06:33:54;9.40;;;5.45;;
22490;SDS011;11412;50.802;4.350;2023-04-15T06:36:20;8.25;;;5.35;;
22490;SDS011;11412;50.802;4.350;2023-04-15T06:38:46;6.65;;;5.30;;
22490;SDS011;11412;50.802;4.350;2023-04-15T06:41:11;6.22;;;4.97;;
22490;SDS011;11412;50.802;4.350;2023-04-15T06:43:37;9.32;;;6.13;;
22490;SDS011;11412;50.802;4.350;2023-04-15T06:46:03;5.28;;;4.78;;
22490;SDS011;11412;50.802;4.350;2023-04-15T06:48:29;8.85;;;4.65;;
22490;SDS011;11412;50.802;4.350;2023-04-15T06:50:55;8.05;;;5.18;;
22490;SDS011;11412;50.802;4.350;2023-04-15T06:53:22;8.80;;;5.80;;
22490;SDS011;11412;50.802;4.350;2023-04-15T06:55:49;13.93;;;5.93;;
22490;SDS011;11412;50.802;4.350;2023-04-15T06:58:14;7.93;;;5.70;;
22490;SDS011;11412;50.802;4.350;2023-04-15T07:00:41;7.57;;;5.45;;
22490;SDS011;11412;50.802;4.350;2023-04-15T07:03:06;5.93;;;5.32;;
22490;SDS011;11412;50.802;4.350;2023-04-15T07:05:35;8.00;;;5.20;;
22490;SDS011;11412;50.802;4.350;2023-04-15T07:08:00;5.88;;;5.20;;
22490;SDS011;11412;50.802;4.350;2023-04-15T07:10:26;6.00;;;4.70;;
22490;SDS011;11412;50.802;4.350;2023-04-15T07:12:51;5.45;;;4.72;;
22490;SDS011;11412;50.802;4.350;2023-04-15T07:15:17;10.15;;;5.80;;
22490;SDS011;11412;50.802;4.350;2023-04-15T07:17:43;6.10;;;5.00;;
22490;SDS011;11412;50.802;4.350;2023-04-15T07:20:08;6.50;;;4.70;;
22490;SDS011;11412;50.802;4.350;2023-04-15T07:22:34;8.15;;;4.50;;
22490;SDS011;11412;50.802;4.350;2023-04-15T07:25:00;8.82;;;4.70;;
22490;SDS011;11412;50.802;4.350;2023-04-15T07:27:26;5.75;;;4.47;;
22490;SDS011;11412;50.802;4.350;2023-04-15T07:29:52;8.65;;;4.63;;
22490;SDS011;11412;50.802;4.350;2023-04-15T07:32:18;8.02;;;4.60;;
22490;SDS011;11412;50.802;4.350;2023-04-15T07:34:44;3.83;;;3.22;;
22490;SDS011;11412;50.802;4.350;2023-04-15T07:37:10;5.32;;;4.10;;
22490;SDS011;11412;50.802;4.350;2023-04-15T07:39:36;6.75;;;4.15;;
22490;SDS011;11412;50.802;4.350;2023-04-15T07:42:02;8.70;;;4.43;;
22490;SDS011;11412;50.802;4.350;2023-04-15T07:44:28;6.47;;;4.20;;
22490;SDS011;11412;50.802;4.350;2023-04-15T07:46:55;9.10;;;4.40;;
22490;SDS011;11412;50.802;4.350;2023-04-15T07:49:21;7.82;;;5.07;;
22490;SDS011;11412;50.802;4.350;2023-04-15T07:51:46;6.03;;;5.05;;
22490;SDS011;11412;50.802;4.350;2023-04-15T07:54:13;7.50;;;5.35;;
22490;SDS011;11412;50.802;4.350;2023-04-15T07:56:39;7.40;;;4.75;;
22490;SDS011;11412;50.802;4.350;2023-04-15T07:59:05;10.40;;;5.68;;
22490;SDS011;11412;50.802;4.350;2023-04-15T08:01:31;9.25;;;5.65;;
22490;SDS011;11412;50.802;4.350;2023-04-15T08:03:57;7.18;;;5.45;;
22490;SDS011;11412;50.802;4.350;2023-04-15T08:06:23;10.80;;;6.13;;
22490;SDS011;11412;50.802;4.350;2023-04-15T08:08:49;6.80;;;5.47;;
22490;SDS011;11412;50.802;4.350;2023-04-15T08:11:15;9.43;;;6.15;;
22490;SDS011;11412;50.802;4.350;2023-04-15T08:13:41;12.55;;;6.45;;
22490;SDS011;11412;50.802;4.350;2023-04-15T08:18:41;11.45;;;6.57;;
22490;SDS011;11412;50.802;4.350;2023-04-15T08:21:07;10.75;;;6.22;;
22490;SDS011;11412;50.802;4.350;2023-04-15T08:23:33;9.95;;;7.00;;
22490;SDS011;11412;50.802;4.350;2023-04-15T08:25:59;9.20;;;6.57;;
22490;SDS011;11412;50.802;4.350;2023-04-15T08:28:24;8.73;;;6.18;;
22490;SDS011;11412;50.802;4.350;2023-04-15T08:30:51;13.38;;;7.38;;
22490;SDS011;11412;50.802;4.350;2023-04-15T08:33:17;9.88;;;6.18;;
22490;SDS011;11412;50.802;4.350;2023-04-15T08:35:43;9.55;;;6.90;;
22490;SDS011;11412;50.802;4.350;2023-04-15T08:38:08;11.45;;;6.82;;
22490;SDS011;11412;50.802;4.350;2023-04-15T08:40:39;9.10;;;6.25;;
22490;SDS011;11412;50.802;4.350;2023-04-15T08:43:10;10.85;;;7.03;;
22490;SDS011;11412;50.802;4.350;2023-04-15T08:45:40;9.23;;;6.82;;
22490;SDS011;11412;50.802;4.350;2023-04-15T08:48:06;12.63;;;7.28;;
22490;SDS011;11412;50.802;4.350;2023-04-15T08:50:37;11.73;;;7.00;;
22490;SDS011;11412;50.802;4.350;2023-04-15T08:53:03;11.20;;;7.32;;
22490;SDS011;11412;50.802;4.350;2023-04-15T08:55:29;11.73;;;7.43;;
22490;SDS011;11412;50.802;4.350;2023-04-15T08:58:00;13.32;;;7.40;;
22490;SDS011;11412;50.802;4.350;2023-04-15T09:00:30;12.20;;;7.75;;
22490;SDS011;11412;50.802;4.350;2023-04-15T09:02:57;8.75;;;7.13;;
22490;SDS011;11412;50.802;4.350;2023-04-15T09:05:23;11.77;;;7.18;;
22490;SDS011;11412;50.802;4.350;2023-04-15T09:07:52;14.55;;;8.60;;
22490;SDS011;11412;50.802;4.350;2023-04-15T09:10:17;10.45;;;8.15;;
22490;SDS011;11412;50.802;4.350;2023-04-15T09:12:43;10.98;;;7.93;;
22490;SDS011;11412;50.802;4.350;2023-04-15T09:15:10;10.40;;;7.35;;
22490;SDS011;11412;50.802;4.350;2023-04-15T09:17:36;10.77;;;7.90;;
22490;SDS011;11412;50.802;4.350;2023-04-15T09:22:35;11.50;;;7.28;;
22490;SDS011;11412;50.802;4.350;2023-04-15T09:25:02;10.10;;;7.15;;
22490;SDS011;11412;50.802;4.350;2023-04-15T09:27:28;11.60;;;6.88;;
22490;SDS011;11412;50.802;4.350;2023-04-15T09:29:53;10.02;;;7.15;;
22490;SDS011;11412;50.802;4.350;2023-04-15T09:32:19;12.02;;;7.28;;
22490;SDS011;11412;50.802;4.350;2023-04-15T09:34:47;9.60;;;6.95;;
22490;SDS011;11412;50.802;4.350;2023-04-15T09:37:13;7.60;;;6.45;;
22490;SDS011;11412;50.802;4.350;2023-04-15T09:39:46;5.93;;;5.25;;
22490;SDS011;11412;50.802;4.350;2023-04-15T09:42:16;7.30;;;4.60;;
22490;SDS011;11412;50.802;4.350;2023-04-15T09:44:48;6.40;;;3.90;;
22490;SDS011;11412;50.802;4.350;2023-04-15T09:47:31;5.10;;;4.10;;
22490;SDS011;11412;50.802;4.350;2023-04-15T09:50:00;6.53;;;4.68;;
22490;SDS011;11412;50.802;4.350;2023-04-15T09:52:26;13.18;;;4.85;;
22490;SDS011;11412;50.802;4.350;2023-04-15T09:54:53;8.10;;;4.18;;
22490;SDS011;11412;50.802;4.350;2023-04-15T09:57:20;5.47;;;4.47;;
22490;SDS011;11412;50.802;4.350;2023-04-15T09:59:46;5.10;;;4.28;;
22490;SDS011;11412;50.802;4.350;2023-04-15T10:02:12;6.15;;;4.75;;
22490;SDS011;11412;50.802;4.350;2023-04-15T10:04:39;7.13;;;5.13;;
22490;SDS011;11412;50.802;4.350;2023-04-15T10:07:05;5.80;;;4.88;;
22490;SDS011;11412;50.802;4.350;2023-04-15T10:09:39;11.18;;;4.70;;
22490;SDS011;11412;50.802;4.350;2023-04-15T10:12:05;6.55;;;4.28;;
22490;SDS011;11412;50.802;4.350;2023-04-15T10:14:32;4.20;;;3.80;;
22490;SDS011;11412;50.802;4.350;2023-04-15T10:17:00;6.30;;;4.53;;
22490;SDS011;11412;50.802;4.350;2023-04-15T10:19:27;6.18;;;3.88;;
22490;SDS011;11412;50.802;4.350;2023-04-15T10:21:57;4.57;;;4.00;;
22490;SDS011;11412;50.802;4.350;2023-04-15T10:24:23;5.15;;;4.40;;
22490;SDS011;11412;50.802;4.350;2023-04-15T10:26:50;5.13;;;4.65;;
22490;SDS011;11412;50.802;4.350;2023-04-15T10:29:16;6.13;;;4.28;;
22490;SDS011;11412;50.802;4.350;2023-04-15T10:31:42;4.80;;;4.28;;
22490;SDS011;11412;50.802;4.350;2023-04-15T10:34:08;5.20;;;3.85;;
22490;SDS011;11412;50.802;4.350;2023-04-15T10:36:35;5.40;;;3.70;;
22490;SDS011;11412;50.802;4.350;2023-04-15T10:39:01;5.32;;;4.05;;
22490;SDS011;11412;50.802;4.350;2023-04-15T10:41:31;7.32;;;4.60;;
22490;SDS011;11412;50.802;4.350;2023-04-15T10:46:38;7.57;;;4.10;;
22490;SDS011;11412;50.802;4.350;2023-04-15T10:49:06;4.60;;;3.95;;
22490;SDS011;11412;50.802;4.350;2023-04-15T10:51:37;5.68;;;3.92;;
22490;SDS011;11412;50.802;4.350;2023-04-15T10:57:05;5.22;;;4.10;;
22490;SDS011;11412;50.802;4.350;2023-04-15T10:59:36;6.05;;;4.00;;
22490;SDS011;11412;50.802;4.350;2023-04-15T11:05:12;3.17;;;2.10;;
22490;SDS011;11412;50.802;4.350;2023-04-15T11:07:54;2.20;;;2.03;;
22490;SDS011;11412;50.802;4.350;2023-04-15T11:12:59;4.20;;;2.38;;
22490;SDS011;11412;50.802;4.350;2023-04-15T11:17:57;3.58;;;2.45;;
22490;SDS011;11412;50.802;4.350;2023-04-15T11:20:24;2.22;;;2.03;;
22490;SDS011;11412;50.802;4.350;2023-04-15T11:22:50;3.95;;;2.10;;
22490;SDS011;11412;50.802;4.350;2023-04-15T11:25:27;1.30;;;1.20;;
22490;SDS011;11412;50.802;4.350;2023-04-15T11:27:54;2.22;;;1.55;;
22490;SDS011;11412;50.802;4.350;2023-04-15T11:32:51;3.85;;;2.30;;
22490;SDS011;11412;50.802;4.350;2023-04-15T11:35:19;2.85;;;2.60;;
22490;SDS011;11412;50.802;4.350;2023-04-15T11:37:45;2.75;;;2.47;;
22490;SDS011;11412;50.802;4.350;2023-04-15T11:40:12;2.75;;;2.50;;
22490;SDS011;11412;50.802;4.350;2023-04-15T11:42:39;3.60;;;3.15;;
22490;SDS011;11412;50.802;4.350;2023-04-15T11:45:06;2.88;;;2.30;;
22490;SDS011;11412;50.802;4.350;2023-04-15T11:47:39;4.30;;;2.40;;
22490;SDS011;11412;50.802;4.350;2023-04-15T11:50:13;6.85;;;2.25;;
22490;SDS011;11412;50.802;4.350;2023-04-15T11:52:40;3.40;;;3.10;;
22490;SDS011;11412;50.802;4.350;2023-04-15T11:55:18;2.38;;;2.17;;
22490;SDS011;11412;50.802;4.350;2023-04-15T11:57:45;2.05;;;1.95;;
22490;SDS011;11412;50.802;4.350;2023-04-15T12:00:10;2.30;;;2.10;;
22490;SDS011;11412;50.802;4.350;2023-04-15T12:02:37;1.80;;;1.70;;
22490;SDS011;11412;50.802;4.350;2023-04-15T12:05:04;3.85;;;1.70;;
22490;SDS011;11412;50.802;4.350;2023-04-15T12:07:30;3.08;;;1.73;;
22490;SDS011;11412;50.802;4.350;2023-04-15T12:09:57;2.47;;;2.20;;
22490;SDS011;11412;50.802;4.350;2023-04-15T12:12:27;2.65;;;2.40;;
22490;SDS011;11412;50.802;4.350;2023-04-15T12:14:55;2.45;;;2.20;;
22490;SDS011;11412;50.802;4.350;2023-04-15T12:17:22;3.00;;;2.80;;
22490;SDS011;11412;50.802;4.350;2023-04-15T12:19:54;2.33;;;2.13;;
22490;SDS011;11412;50.802;4.350;2023-04-15T12:22:20;2.38;;;2.17;;
22490;SDS011;11412;50.802;4.350;2023-04-15T12:24:47;4.43;;;2.20;;
22490;SDS011;11412;50.802;4.350;2023-04-15T12:27:24;3.08;;;2.30;;
22490;SDS011;11412;50.802;4.350;2023-04-15T12:29:51;5.82;;;1.90;;
22490;SDS011;11412;50.802;4.350;2023-04-15T12:32:29;2.03;;;1.92;;
22490;SDS011;11412;50.802;4.350;2023-04-15T12:34:59;3.13;;;2.22;;
22490;SDS011;11412;50.802;4.350;2023-04-15T12:37:24;4.60;;;2.75;;
22490;SDS011;11412;50.802;4.350;2023-04-15T12:39:50;3.53;;;3.13;;
22490;SDS011;11412;50.802;4.350;2023-04-15T12:42:16;2.15;;;2.00;;
22490;SDS011;11412;50.802;4.350;2023-04-15T12:44:42;2.33;;;1.67;;
22490;SDS011;11412;50.802;4.350;2023-04-15T12:47:08;3.75;;;2.00;;
22490;SDS011;11412;50.802;4.350;2023-04-15T12:49:35;1.70;;;1.60;;
22490;SDS011;11412;50.802;4.350;2023-04-15T12:52:01;3.08;;;1.80;;
22490;SDS011;11412;50.802;4.350;2023-04-15T12:54:27;9.35;;;3.38;;
22490;SDS011;11412;50.802;4.350;2023-04-15T12:56:54;3.80;;;1.65;;
22490;SDS011;11412;50.802;4.350;2023-04-15T12:59:20;3.92;;;1.73;;
22490;SDS011;11412;50.802;4.350;2023-04-15T13:01:47;8.60;;;2.35;;
22490;SDS011;11412;50.802;4.350;2023-04-15T13:04:14;3.90;;;1.77;;
22490;SDS011;11412;50.802;4.350;2023-04-15T13:06:41;5.05;;;1.83;;
22490;SDS011;11412;50.802;4.350;2023-04-15T13:09:07;3.50;;;1.73;;
22490;SDS011;11412;50.802;4.350;2023-04-15T13:11:33;3.42;;;1.67;;
22490;SDS011;11412;50.802;4.350;2023-04-15T13:14:00;9.00;;;2.20;;
22490;SDS011;11412;50.802;4.350;2023-04-15T13:16:26;1.90;;;1.77;;
22490;SDS011;11412;50.802;4.350;2023-04-15T13:18:52;3.63;;;1.75;;
22490;SDS011;11412;50.802;4.350;2023-04-15T13:21:18;2.30;;;2.08;;
22490;SDS011;11412;50.802;4.350;2023-04-15T13:23:44;3.00;;;1.50;;
22490;SDS011;11412;50.802;4.350;2023-04-15T13:26:09;1.63;;;1.52;;
22490;SDS011;11412;50.802;4.350;2023-04-15T13:28:35;4.47;;;2.20;;
22490;SDS011;11412;50.802;4.350;2023-04-15T13:31:01;1.98;;;1.70;;
22490;SDS011;11412;50.802;4.350;2023-04-15T13:33:27;3.75;;;2.33;;
22490;SDS011;11412;50.802;4.350;2023-04-15T13:35:53;3.67;;;2.17;;
22490;SDS011;11412;50.802;4.350;2023-04-15T13:38:18;2.15;;;1.95;;
22490;SDS011;11412;50.802;4.350;2023-04-15T13:40:44;4.50;;;1.98;;
22490;SDS011;11412;50.802;4.350;2023-04-15T13:43:10;2.67;;;2.20;;
22490;SDS011;11412;50.802;4.350;2023-04-15T13:45:36;2.80;;;2.25;;
22490;SDS011;11412;50.802;4.350;2023-04-15T13:48:02;2.42;;;2.08;;
22490;SDS011;11412;50.802;4.350;2023-04-15T13:50:28;2.65;;;1.98;;
22490;SDS011;11412;50.802;4.350;2023-04-15T13:52:54;2.78;;;1.80;;
22490;SDS011;11412;50.802;4.350;2023-04-15T13:55:20;2.10;;;1.60;;
22490;SDS011;11412;50.802;4.350;2023-04-15T13:57:45;3.03;;;2.00;;
22490;SDS011;11412;50.802;4.350;2023-04-15T14:00:11;2.65;;;1.48;;
22490;SDS011;11412;50.802;4.350;2023-04-15T14:02:38;2.38;;;2.17;;
22490;SDS011;11412;50.802;4.350;2023-04-15T14:05:05;3.08;;;1.90;;
22490;SDS011;11412;50.802;4.350;2023-04-15T14:07:30;3.95;;;1.50;;
22490;SDS011;11412;50.802;4.350;2023-04-15T14:09:56;1.65;;;1.55;;
22490;SDS011;11412;50.802;4.350;2023-04-15T14:12:22;1.50;;;1.15;;
22490;SDS011;11412;50.802;4.350;2023-04-15T14:14:48;2.67;;;1.40;;
22490;SDS011;11412;50.802;4.350;2023-04-15T14:17:14;3.97;;;2.00;;
22490;SDS011;11412;50.802;4.350;2023-04-15T14:19:40;3.25;;;1.90;;
22490;SDS011;11412;50.802;4.350;2023-04-15T14:22:05;3.20;;;1.48;;
22490;SDS011;11412;50.802;4.350;2023-04-15T14:24:31;5.25;;;2.08;;
22490;SDS011;11412;50.802;4.350;2023-04-15T14:26:57;1.75;;;1.33;;
22490;SDS011;11412;50.802;4.350;2023-04-15T14:29:23;3.00;;;1.88;;
22490;SDS011;11412;50.802;4.350;2023-04-15T14:31:49;2.63;;;1.75;;
22490;SDS011;11412;50.802;4.350;2023-04-15T14:34:15;4.43;;;2.03;;
22490;SDS011;11412;50.802;4.350;2023-04-15T14:36:42;2.13;;;1.85;;
22490;SDS011;11412;50.802;4.350;2023-04-15T14:39:08;1.65;;;1.55;;
22490;SDS011;11412;50.802;4.350;2023-04-15T14:41:34;1.55;;;1.38;;
22490;SDS011;11412;50.802;4.350;2023-04-15T14:44:00;2.25;;;1.20;;
22490;SDS011;11412;50.802;4.350;2023-04-15T14:46:26;2.65;;;1.10;;
22490;SDS011;11412;50.802;4.350;2023-04-15T14:48:52;1.20;;;1.08;;
22490;SDS011;11412;50.802;4.350;2023-04-15T14:51:18;2.00;;;0.90;;
22490;SDS011;11412;50.802;4.350;2023-04-15T14:53:44;1.30;;;1.05;;
22490;SDS011;11412;50.802;4.350;2023-04-15T14:56:10;1.05;;;0.93;;
22490;SDS011;11412;50.802;4.350;2023-04-15T14:58:36;2.92;;;0.90;;
22490;SDS011;11412;50.802;4.350;2023-04-15T15:01:04;1.35;;;1.10;;
22490;SDS011;11412;50.802;4.350;2023-04-15T15:03:30;3.20;;;1.10;;